Time;durP1;ratioP1;P1;durP2;ratioP2;P2;SDS_P1;SDS_P2;PMS_P1;PMS_P2;Temp;Humidity;BMP_temperature;BMP_pressure;BME280_temperature;BME280_humidity;BME280_pressure;Samples;Min_cycle;Max_cycle;Signal;HPM_P1;HPM_P2
2021/05/06 00:01:52;;;;;;;1.73;1.27;;;5.70;99.90;;;;;;5053274;28;20426;-90
2021/05/06 00:34:24;;;;;;;1.90;1.53;;;5.40;99.90;;;;;;5056501;28;20415;-89
2021/05/06 00:36:50;;;;;;;1.87;1.60;;;5.40;99.90;;;;;;5056525;28;20507;-89
2021/05/06 00:39:20;;;;;;;2.50;1.50;;;5.40;99.90;;;;;;5056764;28;20484;-89
2021/05/06 00:41:57;;;;;;;2.20;1.20;;;5.40;99.90;;;;;;5055927;28;20477;-87
2021/05/06 00:55:29;;;;;;;2.60;1.40;;;5.50;99.90;;;;;;5062022;28;20468;-88
2021/05/06 00:58:10;;;;;;;1.87;1.50;;;5.40;99.90;;;;;;5058668;28;20481;-89
2021/05/06 01:00:54;;;;;;;2.17;1.43;;;5.50;99.90;;;;;;5057437;28;20450;-88
2021/05/06 01:03:31;;;;;;;1.20;1.10;;;5.40;99.90;;;;;;5056545;28;20526;-89
2021/05/06 01:06:02;;;;;;;1.80;1.50;;;5.40;99.90;;;;;;5057433;28;20438;-90
2021/05/06 01:08:31;;;;;;;1.60;1.50;;;5.40;99.90;;;;;;5056309;28;20470;-89
2021/05/06 01:11:05;;;;;;;1.53;1.40;;;5.40;99.90;;;;;;5056060;28;20485;-89
2021/05/06 01:13:33;;;;;;;1.93;1.30;;;5.50;99.90;;;;;;5055868;28;20803;-90
2021/05/06 01:15:59;;;;;;;1.43;1.33;;;5.50;99.90;;;;;;5055360;28;20560;-90
2021/05/06 01:18:26;;;;;;;1.33;1.23;;;5.50;99.90;;;;;;5055243;28;20470;-87
2021/05/06 01:20:56;;;;;;;1.63;1.20;;;5.50;99.90;;;;;;5055686;28;20945;-88
2021/05/06 01:23:23;;;;;;;1.20;1.10;;;5.50;99.90;;;;;;5055509;28;20445;-87
2021/05/06 01:25:53;;;;;;;1.40;1.30;;;5.60;99.90;;;;;;5055591;28;20545;-88
2021/05/06 01:28:22;;;;;;;2.00;1.30;;;5.60;99.90;;;;;;5055273;28;20518;-89
2021/05/06 01:30:53;;;;;;;1.63;1.43;;;5.50;99.90;;;;;;5055509;28;20569;-89
2021/05/06 01:33:26;;;;;;;1.63;1.47;;;5.60;99.90;;;;;;5054738;28;20497;-90
2021/05/06 01:35:56;;;;;;;1.57;1.47;;;5.60;99.90;;;;;;5055327;28;20434;-90
2021/05/06 01:38:39;;;;;;;4.83;1.50;;;5.60;99.90;;;;;;5055177;28;20469;-89
2021/05/06 01:41:34;;;;;;;1.80;1.30;;;5.70;99.90;;;;;;5055601;28;20430;-88
2021/05/06 01:44:05;;;;;;;1.30;1.20;;;5.60;99.90;;;;;;5055155;28;20438;-88
2021/05/06 01:46:50;;;;;;;1.93;1.40;;;5.70;99.90;;;;;;5054969;28;20446;-88
2021/05/06 01:49:32;;;;;;;1.33;1.20;;;5.60;99.90;;;;;;5054979;28;20790;-87
2021/05/06 02:00:17;;;;;;;1.83;1.30;;;5.70;99.90;;;;;;5051257;28;20952;-89
2021/05/06 02:02:44;;;;;;;3.27;1.50;;;5.70;99.90;;;;;;5054877;28;20449;-89
2021/05/06 02:05:11;;;;;;;1.73;1.40;;;5.80;99.90;;;;;;5054478;28;20452;-90
2021/05/06 02:07:40;;;;;;;2.53;1.40;;;5.80;99.90;;;;;;5054800;28;20469;-89
2021/05/06 02:10:08;;;;;;;1.80;1.13;;;5.80;99.90;;;;;;5054922;28;20430;-89
2021/05/06 02:12:34;;;;;;;1.63;1.53;;;5.80;99.90;;;;;;5054542;28;20887;-89
2021/05/06 02:15:05;;;;;;;1.87;1.30;;;5.80;99.90;;;;;;5054761;28;20548;-89
2021/05/06 02:17:31;;;;;;;1.33;1.23;;;5.80;99.90;;;;;;5054284;28;20508;-89
2021/05/06 02:19:58;;;;;;;3.07;1.20;;;5.80;99.90;;;;;;5054544;28;20450;-90
2021/05/06 02:22:25;;;;;;;2.90;1.50;;;5.80;99.90;;;;;;5054590;28;20955;-89
2021/05/06 02:24:52;;;;;;;1.93;1.67;;;5.70;99.90;;;;;;5054337;28;20577;-90
2021/05/06 02:27:19;;;;;;;3.17;1.87;;;5.70;99.90;;;;;;5054516;28;20456;-90
2021/05/06 02:29:46;;;;;;;2.53;1.70;;;5.80;99.90;;;;;;5054341;28;20491;-90
2021/05/06 02:32:13;;;;;;;2.50;1.40;;;5.80;99.90;;;;;;5054596;28;20486;-90
2021/05/06 02:34:40;;;;;;;2.50;1.60;;;5.70;99.90;;;;;;5054578;28;20434;-93
2021/05/06 02:37:07;;;;;;;2.40;1.50;;;5.70;99.90;;;;;;5054505;28;20504;-90
2021/05/06 02:39:34;;;;;;;1.57;1.37;;;5.70;99.90;;;;;;5073633;28;20473;-89
2021/05/06 02:42:01;;;;;;;1.70;1.60;;;5.70;99.90;;;;;;5060704;28;20452;-89
2021/05/06 02:44:27;;;;;;;2.50;1.67;;;5.70;99.90;;;;;;5057839;28;20562;-91
2021/05/06 02:46:55;;;;;;;2.33;1.27;;;5.70;99.90;;;;;;5056177;28;20462;-92
2021/05/06 02:49:22;;;;;;;4.67;1.70;;;5.70;99.90;;;;;;5055230;28;20879;-91
2021/05/06 02:51:52;;;;;;;1.80;1.70;;;5.50;99.90;;;;;;5054383;28;20478;-90
2021/05/06 02:54:18;;;;;;;5.07;1.80;;;5.40;99.90;;;;;;5054335;28;20485;-90
2021/05/06 02:56:50;;;;;;;2.10;1.43;;;5.30;99.90;;;;;;5054580;28;20522;-91
2021/05/06 03:04:45;;;;;;;1.77;1.50;;;5.20;99.90;;;;;;5054217;28;20947;-91
2021/05/06 03:07:14;;;;;;;2.40;1.90;;;5.10;99.90;;;;;;5053946;28;20996;-92
2021/05/06 03:09:53;;;;;;;6.83;2.17;;;5.20;99.90;;;;;;5054193;28;20963;-90
2021/05/06 03:12:31;;;;;;;3.63;2.60;;;5.10;99.90;;;;;;5054296;28;20480;-91
2021/05/06 03:15:11;;;;;;;3.17;2.07;;;5.20;99.90;;;;;;5054077;28;20453;-91
2021/05/06 03:23:06;;;;;;;3.23;1.90;;;5.20;99.90;;;;;;5053875;28;20416;-90
2021/05/06 03:25:32;;;;;;;4.10;1.70;;;5.20;99.90;;;;;;5053848;28;20456;-90
2021/05/06 03:28:02;;;;;;;5.07;1.93;;;5.20;99.90;;;;;;5054001;28;20581;-90
2021/05/06 03:30:43;;;;;;;2.13;1.93;;;5.20;99.90;;;;;;5054231;28;20540;-92
2021/05/06 03:36:15;;;;;;;4.40;2.40;;;5.20;99.90;;;;;;5053667;28;20405;-91
2021/05/06 03:44:38;;;;;;;4.50;2.27;;;5.00;99.90;;;;;;5017297;28;20473;-90
2021/05/06 04:11:53;;;;;;;2.33;2.13;;;4.90;99.90;;;;;;5057664;28;20448;-88
2021/05/06 04:15:08;;;;;;;2.13;1.93;;;4.80;99.90;;;;;;5056907;28;20989;-90
2021/05/06 04:17:40;;;;;;;2.60;2.17;;;4.80;99.90;;;;;;5057562;28;21003;-91
2021/05/06 04:25:47;;;;;;;2.80;2.20;;;4.70;99.90;;;;;;5070264;28;20444;-89
2021/05/06 04:28:56;;;;;;;2.97;2.10;;;4.70;99.90;;;;;;5069147;28;20518;-92
2021/05/06 04:36:59;;;;;;;1.70;1.60;;;4.70;99.90;;;;;;5058299;28;20441;-89
2021/05/06 04:53:33;;;;;;;2.83;2.30;;;4.90;99.90;;;;;;5056704;28;20425;-88
2021/05/06 04:56:08;;;;;;;4.73;2.63;;;5.00;99.90;;;;;;5056256;28;20462;-89
2021/05/06 05:04:03;;;;;;;3.27;1.93;;;5.40;99.90;;;;;;5056177;28;20452;-90
2021/05/06 05:06:32;;;;;;;1.30;1.20;;;5.50;99.90;;;;;;5056884;28;20550;-89
2021/05/06 05:09:07;;;;;;;1.63;1.50;;;5.60;99.90;;;;;;5055682;28;20533;-89
2021/05/06 05:11:49;;;;;;;2.03;1.37;;;5.70;99.90;;;;;;5057583;28;20508;-90
2021/05/06 05:14:31;;;;;;;2.53;1.80;;;5.80;99.90;;;;;;5057027;28;20434;-89
2021/05/06 05:19:58;;;;;;;1.57;1.43;;;5.90;99.90;;;;;;5056178;28;20409;-90
2021/05/06 05:25:12;;;;;;;2.20;1.83;;;6.00;99.90;;;;;;5055875;28;20410;-91
2021/05/06 05:27:38;;;;;;;3.83;1.83;;;6.10;99.90;;;;;;5055602;28;20462;-90
2021/05/06 05:30:07;;;;;;;3.10;1.97;;;6.10;99.90;;;;;;5055771;28;20450;-90
2021/05/06 05:32:33;;;;;;;1.80;1.70;;;6.10;99.90;;;;;;5055309;28;20474;-91
2021/05/06 05:35:02;;;;;;;3.57;1.70;;;6.10;99.90;;;;;;5055449;28;20521;-91
2021/05/06 05:37:32;;;;;;;3.43;1.70;;;6.10;99.90;;;;;;5055984;28;20466;-91
2021/05/06 05:40:12;;;;;;;2.23;1.40;;;6.10;99.90;;;;;;5055216;28;20951;-90
2021/05/06 05:56:32;;;;;;;3.20;1.83;;;6.10;99.90;;;;;;5044659;28;20486;-92
2021/05/06 05:58:59;;;;;;;2.37;1.67;;;6.10;99.90;;;;;;5055421;28;20436;-91
2021/05/06 06:01:27;;;;;;;3.67;1.50;;;6.10;99.90;;;;;;5055988;28;20487;-90
2021/05/06 06:03:53;;;;;;;2.17;1.40;;;6.10;99.90;;;;;;5055441;28;20422;-90
2021/05/06 06:06:20;;;;;;;3.10;1.53;;;6.10;99.90;;;;;;5055296;28;20493;-89
2021/05/06 06:08:46;;;;;;;4.43;1.47;;;6.20;99.90;;;;;;5055057;28;20466;-90
2021/05/06 06:11:12;;;;;;;3.00;1.23;;;6.20;99.90;;;;;;5055364;28;21049;-90
2021/05/06 06:13:42;;;;;;;2.40;1.30;;;6.30;99.90;;;;;;5067486;28;20450;-88
2021/05/06 06:16:11;;;;;;;4.37;1.43;;;6.20;99.90;;;;;;5066984;28;20503;-90
2021/05/06 06:18:43;;;;;;;2.47;1.50;;;6.30;99.90;;;;;;5059703;28;20461;-90
2021/05/06 06:21:14;;;;;;;2.60;1.40;;;6.30;99.90;;;;;;5058558;28;20450;-89
2021/05/06 06:23:40;;;;;;;2.60;1.43;;;6.30;99.90;;;;;;5056973;28;20438;-90
2021/05/06 06:26:07;;;;;;;2.53;2.33;;;6.40;99.90;;;;;;5056924;28;20785;-89
2021/05/06 06:28:38;;;;;;;3.23;2.03;;;6.40;99.90;;;;;;5054590;28;20473;-89
2021/05/06 06:31:06;;;;;;;1.57;1.47;;;6.50;99.90;;;;;;5054753;28;20556;-88
2021/05/06 06:33:35;;;;;;;5.87;1.70;;;6.60;99.90;;;;;;5054583;28;20449;-89
2021/05/06 06:36:02;;;;;;;1.73;1.60;;;6.60;99.90;;;;;;5054475;28;20503;-88
2021/05/06 06:38:28;;;;;;;2.60;1.40;;;6.60;99.90;;;;;;5054237;28;20476;-89
2021/05/06 06:40:55;;;;;;;3.47;1.70;;;6.70;99.90;;;;;;5054734;28;20437;-90
2021/05/06 06:43:21;;;;;;;3.53;1.70;;;6.70;99.90;;;;;;5054257;28;20497;-89
2021/05/06 06:45:47;;;;;;;2.80;1.93;;;6.80;99.90;;;;;;5054532;28;21018;-90
2021/05/06 06:48:14;;;;;;;1.70;1.33;;;6.90;99.90;;;;;;5053881;28;21038;-90
2021/05/06 06:50:41;;;;;;;2.30;1.63;;;6.90;99.90;;;;;;5054214;28;20454;-90
2021/05/06 06:53:09;;;;;;;4.83;1.90;;;6.90;99.90;;;;;;5055595;28;20789;-89
2021/05/06 06:55:35;;;;;;;4.50;2.20;;;6.90;99.90;;;;;;5054143;28;20525;-90
2021/05/06 06:58:09;;;;;;;3.60;1.97;;;6.90;99.90;;;;;;5053938;28;20454;-89
2021/05/06 07:00:35;;;;;;;6.30;2.13;;;7.00;99.90;;;;;;5053762;28;20434;-88
2021/05/06 07:03:02;;;;;;;4.83;1.70;;;7.00;99.90;;;;;;5054131;28;20506;-88
2021/05/06 07:05:28;;;;;;;1.90;1.67;;;7.20;99.90;;;;;;5053656;28;20488;-89
2021/05/06 07:08:11;;;;;;;1.57;1.47;;;7.30;99.90;;;;;;5053971;28;20969;-87
2021/05/06 07:10:37;;;;;;;2.10;1.53;;;7.50;99.90;;;;;;5054083;28;20442;-89
2021/05/06 07:13:04;;;;;;;2.23;1.40;;;7.50;99.90;;;;;;5053946;28;20963;-88
2021/05/06 07:15:31;;;;;;;3.43;1.33;;;7.60;99.90;;;;;;5053666;28;20433;-88
2021/05/06 07:17:57;;;;;;;2.20;1.53;;;7.70;99.90;;;;;;5053324;28;20510;-87
2021/05/06 07:20:24;;;;;;;2.50;2.00;;;7.80;99.90;;;;;;5053596;28;20940;-88
2021/05/06 07:22:50;;;;;;;2.87;1.60;;;7.90;99.90;;;;;;5053614;28;20941;-89
2021/05/06 07:25:17;;;;;;;7.07;1.70;;;8.00;99.90;;;;;;5053701;28;20438;-87
2021/05/06 07:27:44;;;;;;;4.63;1.83;;;8.10;99.90;;;;;;5053665;28;20464;-89
2021/05/06 07:30:11;;;;;;;2.33;1.30;;;8.20;99.90;;;;;;5054285;28;20438;-87
2021/05/06 07:32:37;;;;;;;2.07;1.43;;;8.40;99.90;;;;;;5060425;28;20477;-89
2021/05/06 07:35:05;;;;;;;3.00;1.67;;;8.60;99.90;;;;;;5060709;28;20457;-87
2021/05/06 07:37:31;;;;;;;1.87;1.53;;;8.90;99.90;;;;;;5060018;28;20991;-88
2021/05/06 07:39:57;;;;;;;5.20;2.40;;;9.20;99.90;;;;;;5060826;28;20806;-88
2021/05/06 07:42:24;;;;;;;2.20;1.47;;;9.60;99.90;;;;;;5060649;28;20460;-88
2021/05/06 07:44:51;;;;;;;6.00;1.73;;;10.60;99.90;;;;;;5060408;28;20951;-86
2021/05/06 07:47:17;;;;;;;1.50;1.17;;;11.80;99.90;;;;;;5060815;28;20844;-85
2021/05/06 07:49:46;;;;;;;2.07;1.20;;;12.60;99.90;;;;;;5061401;28;20747;-85
2021/05/06 07:52:15;;;;;;;2.43;1.57;;;12.90;99.90;;;;;;5060091;28;20481;-85
2021/05/06 07:54:41;;;;;;;1.60;1.50;;;12.70;99.90;;;;;;5060237;28;20576;-85
2021/05/06 07:57:08;;;;;;;2.13;1.50;;;12.20;99.90;;;;;;5060500;28;20469;-85
2021/05/06 07:59:35;;;;;;;2.83;1.30;;;11.80;99.90;;;;;;5060444;28;20442;-85
2021/05/06 08:02:03;;;;;;;3.93;1.60;;;11.40;99.90;;;;;;5060636;28;20433;-85
2021/05/06 08:04:29;;;;;;;2.37;1.50;;;11.00;99.90;;;;;;5062542;28;20442;-87
2021/05/06 08:06:55;;;;;;;3.47;1.37;;;10.70;99.90;;;;;;5063312;28;20454;-88
2021/05/06 08:09:22;;;;;;;1.90;1.60;;;10.50;99.90;;;;;;5062252;28;20945;-88
2021/05/06 08:11:50;;;;;;;4.90;1.87;;;10.40;99.90;;;;;;5060935;28;20492;-87
2021/05/06 08:14:17;;;;;;;4.90;1.43;;;10.30;99.90;;;;;;5060225;28;21000;-85
2021/05/06 08:16:44;;;;;;;3.00;1.60;;;10.20;99.90;;;;;;5060171;28;20812;-88
2021/05/06 08:19:10;;;;;;;3.80;1.40;;;10.20;99.90;;;;;;5060655;28;20813;-88
2021/05/06 08:21:36;;;;;;;1.67;1.57;;;10.20;99.90;;;;;;5060821;28;20515;-88
2021/05/06 08:24:03;;;;;;;3.33;1.57;;;10.10;99.90;;;;;;5060732;28;20474;-88
2021/05/06 08:26:31;;;;;;;2.60;1.60;;;10.00;99.90;;;;;;5060757;28;20453;-88
2021/05/06 08:28:58;;;;;;;1.73;1.30;;;10.00;99.90;;;;;;5060830;28;20456;-88
2021/05/06 08:31:24;;;;;;;2.47;1.70;;;9.90;99.90;;;;;;5060471;28;20851;-88
2021/05/06 08:33:51;;;;;;;7.60;1.77;;;9.90;99.90;;;;;;5060743;28;20453;-88
2021/05/06 08:36:17;;;;;;;2.20;1.40;;;9.80;99.90;;;;;;5060481;28;20445;-88
2021/05/06 08:38:43;;;;;;;2.50;1.40;;;9.70;99.90;;;;;;5060037;28;20457;-88
2021/05/06 08:41:10;;;;;;;2.13;1.20;;;9.70;99.90;;;;;;5060235;28;20444;-87
2021/05/06 08:43:39;;;;;;;1.60;1.50;;;9.60;99.90;;;;;;5056448;28;20485;-88
2021/05/06 08:46:05;;;;;;;3.63;1.73;;;9.60;99.90;;;;;;5058053;28;20480;-88
2021/05/06 08:48:33;;;;;;;3.93;2.50;;;9.50;99.90;;;;;;5057029;28;20481;-88
2021/05/06 08:51:00;;;;;;;5.50;2.40;;;9.40;99.90;;;;;;5056821;28;21007;-88
2021/05/06 08:53:26;;;;;;;3.73;1.80;;;9.40;99.90;;;;;;5056718;28;20967;-89
2021/05/06 08:55:53;;;;;;;2.20;1.30;;;9.30;99.90;;;;;;5056686;28;20485;-88
2021/05/06 08:58:20;;;;;;;5.17;1.77;;;9.30;99.90;;;;;;5056968;28;20527;-87
2021/05/06 09:00:46;;;;;;;1.50;1.40;;;9.20;99.90;;;;;;5056964;28;20580;-88
2021/05/06 09:03:15;;;;;;;2.70;1.90;;;9.20;99.90;;;;;;5056832;28;20453;-88
2021/05/06 09:06:13;;;;;;;4.77;2.13;;;9.20;99.90;;;;;;5056809;28;20477;-88
2021/05/06 09:08:41;;;;;;;2.70;2.10;;;9.10;99.90;;;;;;5056566;28;20488;-86
2021/05/06 09:11:08;;;;;;;3.20;2.17;;;9.10;99.90;;;;;;5056001;28;20466;-85
2021/05/06 09:13:35;;;;;;;4.23;1.97;;;8.90;99.90;;;;;;5056380;28;20438;-86
2021/05/06 09:16:02;;;;;;;2.60;1.60;;;8.80;99.90;;;;;;5056003;28;20952;-86
2021/05/06 09:18:40;;;;;;;2.37;1.67;;;8.70;99.90;;;;;;5055795;28;20469;-86
2021/05/06 09:21:08;;;;;;;8.77;2.60;;;8.70;99.90;;;;;;5056139;28;20442;-88
2021/05/06 09:24:02;;;;;;;2.57;2.37;;;8.60;99.90;;;;;;5056313;28;20450;-88
2021/05/06 09:26:29;;;;;;;3.37;2.07;;;8.60;99.90;;;;;;5056237;28;20496;-88
2021/05/06 09:28:55;;;;;;;2.60;2.13;;;8.50;99.90;;;;;;5057117;28;20442;-88
2021/05/06 09:31:24;;;;;;;5.07;2.20;;;8.50;99.90;;;;;;5056598;28;20800;-87
2021/05/06 09:33:51;;;;;;;4.50;2.10;;;8.50;99.90;;;;;;5056931;28;20508;-89
2021/05/06 09:36:19;;;;;;;3.67;2.23;;;8.40;99.90;;;;;;5056288;28;20433;-90
2021/05/06 09:38:48;;;;;;;5.60;2.53;;;8.40;99.90;;;;;;5056199;28;20478;-87
2021/05/06 09:41:18;;;;;;;2.37;2.00;;;8.40;99.90;;;;;;5055838;28;20444;-89
2021/05/06 09:43:46;;;;;;;3.77;2.23;;;8.40;99.90;;;;;;5056751;28;20507;-88
2021/05/06 09:46:28;;;;;;;4.67;2.50;;;8.50;99.90;;;;;;5056288;28;20453;-90
2021/05/06 09:48:56;;;;;;;2.93;1.70;;;8.40;99.90;;;;;;5056443;28;20480;-89
2021/05/06 09:51:36;;;;;;;2.33;2.13;;;8.30;99.90;;;;;;5063022;28;20465;-88
2021/05/06 09:54:04;;;;;;;3.27;1.70;;;8.30;99.90;;;;;;5065070;28;20449;-89
2021/05/06 09:56:31;;;;;;;3.03;2.20;;;8.30;99.90;;;;;;5060107;28;20416;-90
2021/05/06 09:58:58;;;;;;;4.13;1.63;;;8.30;99.90;;;;;;5060261;28;20434;-89
2021/05/06 10:01:37;;;;;;;6.23;1.50;;;8.30;99.90;;;;;;5059418;28;20442;-92
2021/05/06 10:04:15;;;;;;;1.97;1.30;;;8.30;99.90;;;;;;5056033;28;20900;-91
2021/05/06 10:06:41;;;;;;;1.43;1.27;;;8.30;99.90;;;;;;5055816;28;20430;-90
2021/05/06 10:09:08;;;;;;;1.90;1.60;;;8.40;99.90;;;;;;5056016;28;20450;-89
2021/05/06 10:11:37;;;;;;;4.13;1.50;;;8.40;99.90;;;;;;5055555;28;20469;-89
2021/05/06 10:14:04;;;;;;;1.40;1.30;;;8.50;99.90;;;;;;5055508;28;20924;-88
2021/05/06 10:16:30;;;;;;;1.70;1.60;;;8.50;99.90;;;;;;5055734;28;20553;-90
2021/05/06 10:19:00;;;;;;;3.53;1.47;;;8.40;99.90;;;;;;5055469;28;20410;-89
2021/05/06 10:21:27;;;;;;;1.80;1.20;;;8.50;99.90;;;;;;5055677;28;20496;-91
2021/05/06 10:23:54;;;;;;;2.20;1.50;;;8.60;99.90;;;;;;5055510;28;20922;-88
2021/05/06 10:26:21;;;;;;;1.57;1.10;;;8.60;99.90;;;;;;5055266;28;20437;-91
2021/05/06 10:28:52;;;;;;;1.20;1.10;;;8.70;99.90;;;;;;5055148;28;20458;-91
2021/05/06 10:31:18;;;;;;;1.10;1.00;;;8.80;99.90;;;;;;5055469;28;20482;-90
2021/05/06 10:33:45;;;;;;;2.47;0.90;;;8.80;99.90;;;;;;5055382;28;20442;-90
2021/05/06 10:36:12;;;;;;;1.50;1.10;;;8.80;99.90;;;;;;5056002;28;20450;-88
2021/05/06 10:52:35;;;;;;;1.10;0.93;;;9.10;99.90;;;;;;5054630;28;20906;-91
2021/05/06 10:55:02;;;;;;;1.50;1.07;;;9.20;99.90;;;;;;5056336;28;20509;-91
2021/05/06 10:57:34;;;;;;;1.37;1.13;;;9.30;99.90;;;;;;5054586;28;20458;-89
2021/05/06 11:00:01;;;;;;;0.83;0.83;;;9.50;99.90;;;;;;5054517;28;20436;-90
2021/05/06 11:02:51;;;;;;;0.90;0.90;;;9.60;99.90;;;;;;5054610;28;20441;-91
2021/05/06 11:05:19;;;;;;;1.13;0.97;;;9.80;99.90;;;;;;5054033;28;20494;-90
2021/05/06 11:08:26;;;;;;;1.80;1.17;;;9.80;99.90;;;;;;5054464;28;20450;-91
2021/05/06 11:11:13;;;;;;;1.40;0.90;;;9.80;99.90;;;;;;5034668;28;20766;-90
2021/05/06 11:14:03;;;;;;;1.53;0.80;;;9.90;99.90;;;;;;5054292;28;20403;-89
2021/05/06 11:16:29;;;;;;;0.73;0.70;;;10.10;99.90;;;;;;5054791;28;20452;-91
2021/05/06 11:18:57;;;;;;;0.80;0.80;;;10.10;99.90;;;;;;5053966;28;20422;-90
2021/05/06 11:21:40;;;;;;;1.23;0.70;;;10.20;99.90;;;;;;5054451;28;20473;-91
2021/05/06 11:24:18;;;;;;;1.07;0.60;;;10.30;99.90;;;;;;5054027;28;20438;-90
2021/05/06 11:27:12;;;;;;;0.70;0.50;;;10.60;99.90;;;;;;5053956;28;20440;-88
2021/05/06 11:29:40;;;;;;;2.10;0.60;;;10.70;99.90;;;;;;5054002;28;20464;-88
2021/05/06 11:32:17;;;;;;;0.60;0.60;;;10.60;99.90;;;;;;5052943;28;20473;-87
2021/05/06 11:34:50;;;;;;;0.60;0.60;;;10.60;99.90;;;;;;5053650;28;20921;-88
2021/05/06 11:37:20;;;;;;;0.60;0.50;;;10.60;99.90;;;;;;5053884;28;20454;-88
2021/05/06 11:40:03;;;;;;;0.83;0.60;;;10.60;99.90;;;;;;5061038;28;20415;-87
2021/05/06 11:42:37;;;;;;;2.10;0.70;;;10.80;99.90;;;;;;5065578;28;20430;-88
2021/05/06 11:45:20;;;;;;;0.70;0.70;;;10.90;99.90;;;;;;5058123;28;20524;-90
2021/05/06 11:47:47;;;;;;;0.60;0.60;;;11.00;99.90;;;;;;5056084;28;20572;-89
2021/05/06 11:50:27;;;;;;;0.77;0.67;;;10.90;99.90;;;;;;5054962;28;20452;-89
2021/05/06 11:52:55;;;;;;;0.90;0.63;;;10.80;99.90;;;;;;5054211;28;20473;-89
2021/05/06 11:55:39;;;;;;;0.60;0.60;;;10.70;99.90;;;;;;5053421;28;20989;-89
2021/05/06 11:58:06;;;;;;;0.70;0.70;;;10.50;99.90;;;;;;5054658;28;20467;-88
2021/05/06 12:00:33;;;;;;;0.87;0.87;;;10.50;99.90;;;;;;5054535;28;20785;-88
2021/05/06 12:03:02;;;;;;;1.53;1.00;;;10.40;99.90;;;;;;5053576;28;20482;-88
2021/05/06 12:05:47;;;;;;;0.67;0.67;;;10.30;99.90;;;;;;5055105;28;20468;-85
2021/05/06 12:08:14;;;;;;;1.13;0.80;;;10.30;99.90;;;;;;5052916;28;20453;-89
2021/05/06 12:10:41;;;;;;;0.80;0.80;;;10.30;99.90;;;;;;5053098;28;20442;-89
2021/05/06 12:13:09;;;;;;;0.70;0.70;;;10.20;99.90;;;;;;5052862;28;20488;-88
2021/05/06 12:15:36;;;;;;;1.00;0.90;;;10.00;99.90;;;;;;5053358;28;20442;-88
2021/05/06 12:18:21;;;;;;;0.80;0.70;;;9.90;99.90;;;;;;5054901;28;20453;-90
2021/05/06 12:21:00;;;;;;;3.00;0.70;;;9.80;99.90;;;;;;5056188;28;20464;-91
2021/05/06 12:23:26;;;;;;;0.73;0.73;;;9.70;99.90;;;;;;5056195;28;20944;-89
2021/05/06 12:25:53;;;;;;;0.70;0.70;;;9.70;99.90;;;;;;5056771;28;20476;-90
2021/05/06 12:28:20;;;;;;;1.73;0.73;;;9.70;99.90;;;;;;5056123;28;20515;-90
2021/05/06 12:30:47;;;;;;;0.80;0.80;;;9.60;99.90;;;;;;5056242;28;20971;-91
2021/05/06 12:33:13;;;;;;;1.10;0.70;;;9.60;99.90;;;;;;5055982;28;21037;-90
2021/05/06 12:35:49;;;;;;;0.70;0.70;;;9.60;99.90;;;;;;5057523;28;20452;-90
2021/05/06 12:38:16;;;;;;;0.97;0.90;;;9.40;99.90;;;;;;5064430;28;20475;-90
2021/05/06 12:40:43;;;;;;;0.80;0.80;;;9.30;99.90;;;;;;5075830;28;20453;-89
2021/05/06 12:43:28;;;;;;;0.90;0.80;;;9.20;99.90;;;;;;5075906;28;20418;-90
2021/05/06 12:46:00;;;;;;;1.00;1.00;;;9.00;99.90;;;;;;5076167;28;20494;-91
2021/05/06 12:48:42;;;;;;;3.23;1.40;;;9.00;99.90;;;;;;5075789;28;20460;-91
2021/05/06 12:51:09;;;;;;;1.23;1.13;;;9.00;99.90;;;;;;5075696;28;20432;-91
2021/05/06 12:53:36;;;;;;;1.27;1.07;;;8.90;99.90;;;;;;5075772;28;20517;-89
2021/05/06 12:56:03;;;;;;;0.97;0.97;;;8.70;99.90;;;;;;5057348;28;556050;-92
2021/05/06 12:58:32;;;;;;;0.80;0.80;;;8.70;99.90;;;;;;5077217;28;20233;-89
2021/05/06 13:01:13;;;;;;;1.57;1.00;;;8.70;99.90;;;;;;5077301;28;20437;-90
2021/05/06 13:03:45;;;;;;;0.90;0.90;;;8.70;99.90;;;;;;5077296;28;20908;-89
2021/05/06 13:06:13;;;;;;;1.70;1.10;;;8.60;99.90;;;;;;5076904;28;20547;-89
2021/05/06 13:08:40;;;;;;;1.17;1.10;;;8.50;99.90;;;;;;5076945;28;20473;-89
2021/05/06 13:11:09;;;;;;;1.53;1.00;;;8.50;99.90;;;;;;5076695;28;20457;-90
2021/05/06 13:13:39;;;;;;;1.20;1.20;;;8.40;99.90;;;;;;5076676;28;20421;-89
2021/05/06 13:16:06;;;;;;;2.00;1.50;;;8.40;99.90;;;;;;5076734;28;20448;-89
2021/05/06 13:18:32;;;;;;;2.60;1.70;;;8.40;99.90;;;;;;5076590;28;20469;-89
2021/05/06 13:20:59;;;;;;;1.43;1.33;;;8.40;99.90;;;;;;5076517;28;20431;-91
2021/05/06 13:23:28;;;;;;;1.70;1.60;;;8.30;99.90;;;;;;5076644;28;20417;-90
2021/05/06 13:25:56;;;;;;;3.20;1.93;;;8.40;99.90;;;;;;5076841;28;20448;-89
2021/05/06 13:28:43;;;;;;;2.30;1.70;;;8.30;99.90;;;;;;5093185;28;20464;-91
2021/05/06 13:31:12;;;;;;;1.90;1.70;;;8.30;99.90;;;;;;5083175;28;20433;-89
2021/05/06 13:33:39;;;;;;;1.77;1.67;;;8.20;99.90;;;;;;5080373;28;20927;-89
2021/05/06 13:36:08;;;;;;;3.97;1.43;;;8.20;99.90;;;;;;5077433;28;20864;-89
2021/05/06 13:38:56;;;;;;;1.97;1.60;;;8.10;99.90;;;;;;5076731;28;20529;-91
2021/05/06 13:41:24;;;;;;;1.90;1.80;;;8.10;99.90;;;;;;5076091;28;20490;-90
2021/05/06 13:43:51;;;;;;;3.10;2.07;;;8.10;99.90;;;;;;5076068;28;20433;-90
2021/05/06 13:46:18;;;;;;;2.27;1.67;;;8.00;99.90;;;;;;5075884;28;20544;-89
2021/05/06 13:48:44;;;;;;;5.37;2.07;;;7.90;99.90;;;;;;5075982;28;20457;-90
2021/05/06 13:51:13;;;;;;;6.13;2.37;;;7.90;99.90;;;;;;5076414;28;20457;-88
2021/05/06 13:53:41;;;;;;;2.17;2.00;;;7.90;99.90;;;;;;5075661;28;20779;-90
2021/05/06 13:56:09;;;;;;;2.67;1.30;;;7.90;99.90;;;;;;5075418;28;20987;-90
2021/05/06 13:58:36;;;;;;;1.30;1.20;;;7.90;99.90;;;;;;5075848;28;20483;-89
2021/05/06 14:01:05;;;;;;;1.97;1.30;;;7.90;99.90;;;;;;5075668;28;20433;-89
2021/05/06 14:03:32;;;;;;;1.27;1.03;;;7.90;99.90;;;;;;5075644;28;20468;-88
2021/05/06 14:05:59;;;;;;;1.50;1.40;;;7.90;99.90;;;;;;5075814;28;20448;-89
2021/05/06 14:08:36;;;;;;;1.00;1.00;;;7.90;99.90;;;;;;5075757;28;20471;-89
2021/05/06 14:13:44;;;;;;;1.47;0.90;;;7.90;99.90;;;;;;5073829;28;20834;-89
2021/05/06 14:16:11;;;;;;;0.90;0.80;;;7.80;99.90;;;;;;5075153;28;20919;-89
2021/05/06 14:18:38;;;;;;;1.83;0.80;;;7.80;99.90;;;;;;5075590;28;20835;-89
2021/05/06 14:21:07;;;;;;;1.70;1.00;;;7.90;99.90;;;;;;5075548;28;20449;-89
2021/05/06 14:23:38;;;;;;;2.80;0.73;;;7.90;99.90;;;;;;5075484;28;20516;-90
2021/05/06 14:26:05;;;;;;;0.80;0.80;;;7.90;99.90;;;;;;5079460;28;20428;-90
2021/05/06 14:28:31;;;;;;;1.83;1.00;;;7.80;99.90;;;;;;5077014;28;20543;-90
2021/05/06 14:30:57;;;;;;;1.07;0.90;;;7.70;99.90;;;;;;5075361;28;20457;-90
2021/05/06 14:33:25;;;;;;;0.93;0.70;;;7.70;99.90;;;;;;5075053;28;20999;-89
2021/05/06 14:35:51;;;;;;;0.77;0.77;;;7.70;99.90;;;;;;5075098;28;20448;-90
2021/05/06 14:38:18;;;;;;;0.63;0.63;;;7.70;99.90;;;;;;5074858;28;20540;-92
2021/05/06 14:40:44;;;;;;;0.70;0.70;;;7.70;99.90;;;;;;5074170;28;20453;-90
2021/05/06 14:43:10;;;;;;;0.60;0.60;;;7.60;99.90;;;;;;5075216;28;20449;-89
2021/05/06 14:45:37;;;;;;;1.20;0.60;;;7.60;99.90;;;;;;5074333;28;20433;-87
2021/05/06 14:48:04;;;;;;;0.70;0.70;;;7.60;99.90;;;;;;5074502;28;20473;-91
2021/05/06 14:50:32;;;;;;;0.80;0.70;;;7.70;99.90;;;;;;5074906;28;20433;-92
2021/05/06 14:52:59;;;;;;;0.63;0.63;;;7.70;99.90;;;;;;5075016;28;20481;-87
2021/05/06 14:55:26;;;;;;;0.63;0.60;;;7.70;99.90;;;;;;5074272;28;21045;-91
2021/05/06 14:57:53;;;;;;;0.67;0.67;;;7.70;99.90;;;;;;5074913;28;20502;-93
2021/05/06 15:00:22;;;;;;;2.73;0.60;;;7.70;99.90;;;;;;5075505;28;20475;-91
2021/05/06 15:02:48;;;;;;;1.60;0.60;;;7.70;99.90;;;;;;5074556;28;20445;-90
2021/05/06 15:05:15;;;;;;;0.57;0.57;;;7.80;99.90;;;;;;5074537;28;20437;-90
2021/05/06 15:07:42;;;;;;;0.53;0.50;;;7.90;99.90;;;;;;5074329;28;20465;-90
2021/05/06 15:10:11;;;;;;;0.90;0.70;;;7.90;99.90;;;;;;5074632;28;20405;-90
2021/05/06 15:12:37;;;;;;;1.43;0.70;;;7.90;99.90;;;;;;5074502;28;20983;-91
2021/05/06 15:15:05;;;;;;;0.60;0.60;;;8.00;99.90;;;;;;5074472;28;20422;-92
2021/05/06 15:17:31;;;;;;;0.70;0.60;;;7.90;99.90;;;;;;5074597;28;20445;-91
2021/05/06 15:19:59;;;;;;;0.67;0.67;;;8.00;99.90;;;;;;5090347;28;20439;-87
2021/05/06 15:22:27;;;;;;;0.90;0.70;;;7.90;99.90;;;;;;5081600;28;20434;-91
2021/05/06 15:24:54;;;;;;;1.07;0.60;;;7.90;99.90;;;;;;5078227;28;20478;-91
2021/05/06 15:27:21;;;;;;;2.10;0.77;;;7.90;99.90;;;;;;5076226;28;20542;-89
2021/05/06 15:29:48;;;;;;;1.23;0.80;;;8.00;99.90;;;;;;5075024;28;20429;-90
2021/05/06 15:32:14;;;;;;;0.93;0.93;;;8.00;99.90;;;;;;5074408;28;20468;-92
2021/05/06 15:34:42;;;;;;;1.30;1.20;;;7.90;99.90;;;;;;5074347;28;20418;-90
2021/05/06 15:37:09;;;;;;;0.90;0.80;;;7.90;99.90;;;;;;5074141;28;20805;-90
2021/05/06 15:39:35;;;;;;;0.80;0.80;;;7.90;99.90;;;;;;5074337;28;20437;-89
2021/05/06 15:42:02;;;;;;;0.90;0.90;;;8.00;99.90;;;;;;5074311;28;20478;-90
2021/05/06 15:44:29;;;;;;;2.23;1.20;;;8.00;99.90;;;;;;5074522;28;20437;-90
2021/05/06 15:46:59;;;;;;;2.50;0.70;;;8.00;99.90;;;;;;5073911;28;20448;-90
2021/05/06 15:49:30;;;;;;;2.27;1.17;;;8.00;99.90;;;;;;5074695;28;20502;-91
2021/05/06 15:52:00;;;;;;;0.90;0.90;;;8.00;99.90;;;;;;5075403;28;20473;-92